Littleton, CO (80127)

3:57 AM MDT on July 28, 2015 (GMT -0600)
Mill Hollow | | Change Station
CLOSE
Current Station
Personal Weather Station
Location: Littleton, CO
Elevation: 7125 ft
Nearby Weather Stations

Elev 7125 ft 39.52 °N, 105.16 °W | Updated 1 minute ago

Clear
Clear
55.5 °F
Feels Like 55.5 °F
N
2.0
Wind Variable Wind from South
Gusts 5.0 mph

Today
High -- | Low -- °F
--% Chance of Precip.
Yesterday
High -- | Low -- °F
Precip. -- in
5:56 AM 8:17 PM
Waxing Gibbous, 88% visible
Pressure 29.83 in
Visibility 10.0 miles
Clouds Clear
Dew Point 37 °F
Humidity 51%
Rainfall 0.00 in
Snow Depth Not available.
UV 0 out of 12
Pollen 6.70 out of 12
Air Quality Not available.
Flu Activity Not available.
METAR KAPA 280953Z 13007KT 10SM CLR 17/04 A3009 RMK AO2 SLP102 T01720039

More Conditions Fewer Conditions

Pressure 29.83 in
Visibility 10.0 miles
Clouds Clear
Dew Point 37 °F
Humidity 51%
Rainfall 0.00 in
Snow Depth Not available.
UV 0 out of 12
Pollen 6.70 out of 12
Air Quality Not available.
Flu Activity Not available.
METAR KAPA 280953Z 13007KT 10SM CLR 17/04 A3009 RMK AO2 SLP102 T01720039

More Conditions Fewer Conditions

10-Day Weather Forecast

×

Almanac

Astronomy

Jul. 28, 2015 Rise Set
Actual Time
Civil Twilight
Nautical Twilight
Astronomical Twilight
Moon
Length of Visible Light
Length of Day
Tomorrow will be .
, % of the Moon is Illuminated

Today's Extremes

State Highs State Lows

Community

WunderPhotos

Upload Photos

1,841,800 photos uploaded!

WunderBlogs® & News

Nearby

Air Quality

  Air Quality AQ Index Pollutant
Not available.

Snow Depth

Station Depth Elevation

Earthquake Activity

City Distance Mag. Time & Date
Minimum magnitude displayed is 2.5.

Coastal Water Temperatures

Place Temperature

Stations

Nearby Weather Stations

Station Location Temp. Windchill Dew Point Humidity Wind Precip. Elev Updated Type